sensor_id;sensor_type;location;lat;lon;timestamp;P1;durP1;ratioP1;P2;durP2;ratioP2
3022;SDS011;1521;53.584;9.938;2023-04-01T00:01:30;15.40;;;8.90;;
3022;SDS011;1521;53.584;9.938;2023-04-01T00:03:56;17.33;;;8.43;;
3022;SDS011;1521;53.584;9.938;2023-04-01T00:06:21;13.70;;;8.90;;
3022;SDS011;1521;53.584;9.938;2023-04-01T00:08:47;16.60;;;9.00;;
3022;SDS011;1521;53.584;9.938;2023-04-01T00:11:13;15.23;;;8.30;;
3022;SDS011;1521;53.584;9.938;2023-04-01T00:13:39;14.33;;;8.70;;
3022;SDS011;1521;53.584;9.938;2023-04-01T00:16:06;15.50;;;9.13;;
3022;SDS011;1521;53.584;9.938;2023-04-01T00:18:32;17.50;;;9.83;;
3022;SDS011;1521;53.584;9.938;2023-04-01T00:20:58;20.70;;;8.80;;
3022;SDS011;1521;53.584;9.938;2023-04-01T00:23:24;15.20;;;8.67;;
3022;SDS011;1521;53.584;9.938;2023-04-01T00:25:50;22.83;;;9.20;;
3022;SDS011;1521;53.584;9.938;2023-04-01T00:28:16;16.57;;;9.07;;
3022;SDS011;1521;53.584;9.938;2023-04-01T00:30:43;18.57;;;9.50;;
3022;SDS011;1521;53.584;9.938;2023-04-01T00:33:09;17.50;;;9.43;;
3022;SDS011;1521;53.584;9.938;2023-04-01T00:35:39;15.17;;;8.30;;
3022;SDS011;1521;53.584;9.938;2023-04-01T00:38:05;19.87;;;9.47;;
3022;SDS011;1521;53.584;9.938;2023-04-01T00:40:33;19.00;;;9.80;;
3022;SDS011;1521;53.584;9.938;2023-04-01T00:42:59;19.20;;;10.30;;
3022;SDS011;1521;53.584;9.938;2023-04-01T00:48:04;16.80;;;9.03;;
3022;SDS011;1521;53.584;9.938;2023-04-01T00:50:33;20.30;;;9.77;;
3022;SDS011;1521;53.584;9.938;2023-04-01T00:53:00;17.23;;;10.13;;
3022;SDS011;1521;53.584;9.938;2023-04-01T00:55:28;21.30;;;10.50;;
3022;SDS011;1521;53.584;9.938;2023-04-01T00:57:57;21.17;;;10.20;;
3022;SDS011;1521;53.584;9.938;2023-04-01T01:00:25;22.77;;;10.00;;
3022;SDS011;1521;53.584;9.938;2023-04-01T01:02:52;14.97;;;9.40;;
3022;SDS011;1521;53.584;9.938;2023-04-01T01:05:19;19.33;;;9.43;;
3022;SDS011;1521;53.584;9.938;2023-04-01T01:07:59;19.10;;;10.40;;
3022;SDS011;1521;53.584;9.938;2023-04-01T01:10:31;18.70;;;10.37;;
3022;SDS011;1521;53.584;9.938;2023-04-01T01:15:32;22.23;;;10.47;;
3022;SDS011;1521;53.584;9.938;2023-04-01T01:20:35;21.57;;;11.77;;
3022;SDS011;1521;53.584;9.938;2023-04-01T01:26:31;18.27;;;9.50;;
3022;SDS011;1521;53.584;9.938;2023-04-01T01:37:19;23.93;;;10.37;;
3022;SDS011;1521;53.584;9.938;2023-04-01T01:39:50;18.80;;;9.47;;
3022;SDS011;1521;53.584;9.938;2023-04-01T01:42:19;16.80;;;10.30;;
3022;SDS011;1521;53.584;9.938;2023-04-01T01:44:47;19.00;;;10.30;;
3022;SDS011;1521;53.584;9.938;2023-04-01T01:47:15;23.50;;;10.60;;
3022;SDS011;1521;53.584;9.938;2023-04-01T01:49:42;21.40;;;10.20;;
3022;SDS011;1521;53.584;9.938;2023-04-01T01:52:10;12.37;;;9.07;;
3022;SDS011;1521;53.584;9.938;2023-04-01T01:54:46;19.63;;;11.00;;
3022;SDS011;1521;53.584;9.938;2023-04-01T01:57:13;20.13;;;9.67;;
3022;SDS011;1521;53.584;9.938;2023-04-01T01:59:42;20.33;;;9.97;;
3022;SDS011;1521;53.584;9.938;2023-04-01T02:02:08;22.37;;;10.23;;
3022;SDS011;1521;53.584;9.938;2023-04-01T02:04:36;23.57;;;10.10;;
3022;SDS011;1521;53.584;9.938;2023-04-01T02:07:06;17.67;;;9.90;;
3022;SDS011;1521;53.584;9.938;2023-04-01T02:09:36;18.60;;;9.20;;
3022;SDS011;1521;53.584;9.938;2023-04-01T02:12:08;14.07;;;9.50;;
3022;SDS011;1521;53.584;9.938;2023-04-01T02:17:09;20.33;;;10.23;;
3022;SDS011;1521;53.584;9.938;2023-04-01T02:19:40;20.87;;;10.20;;
3022;SDS011;1521;53.584;9.938;2023-04-01T02:22:14;20.03;;;9.70;;
3022;SDS011;1521;53.584;9.938;2023-04-01T02:24:44;23.70;;;10.80;;
3022;SDS011;1521;53.584;9.938;2023-04-01T02:27:11;16.30;;;10.47;;
3022;SDS011;1521;53.584;9.938;2023-04-01T02:29:37;23.63;;;9.50;;
3022;SDS011;1521;53.584;9.938;2023-04-01T02:32:03;17.30;;;9.37;;
3022;SDS011;1521;53.584;9.938;2023-04-01T02:34:30;15.80;;;9.50;;
3022;SDS011;1521;53.584;9.938;2023-04-01T02:36:57;18.07;;;9.07;;
3022;SDS011;1521;53.584;9.938;2023-04-01T02:39:23;25.60;;;10.77;;
3022;SDS011;1521;53.584;9.938;2023-04-01T02:41:50;20.30;;;8.90;;
3022;SDS011;1521;53.584;9.938;2023-04-01T02:44:16;16.47;;;9.03;;
3022;SDS011;1521;53.584;9.938;2023-04-01T02:46:41;14.93;;;8.80;;
3022;SDS011;1521;53.584;9.938;2023-04-01T02:49:07;17.97;;;8.93;;
3022;SDS011;1521;53.584;9.938;2023-04-01T02:51:33;18.77;;;9.10;;
3022;SDS011;1521;53.584;9.938;2023-04-01T02:53:59;18.40;;;8.97;;
3022;SDS011;1521;53.584;9.938;2023-04-01T02:56:25;18.87;;;8.93;;
3022;SDS011;1521;53.584;9.938;2023-04-01T02:58:51;17.40;;;10.33;;
3022;SDS011;1521;53.584;9.938;2023-04-01T03:01:17;15.10;;;8.50;;
3022;SDS011;1521;53.584;9.938;2023-04-01T03:03:43;15.33;;;9.43;;
3022;SDS011;1521;53.584;9.938;2023-04-01T03:06:09;18.53;;;11.60;;
3022;SDS011;1521;53.584;9.938;2023-04-01T03:08:37;21.20;;;12.07;;
3022;SDS011;1521;53.584;9.938;2023-04-01T03:11:03;31.03;;;17.93;;
3022;SDS011;1521;53.584;9.938;2023-04-01T03:13:29;34.73;;;20.47;;
3022;SDS011;1521;53.584;9.938;2023-04-01T03:15:55;41.37;;;22.40;;
3022;SDS011;1521;53.584;9.938;2023-04-01T03:18:20;33.30;;;19.67;;
3022;SDS011;1521;53.584;9.938;2023-04-01T03:20:46;30.80;;;19.97;;
3022;SDS011;1521;53.584;9.938;2023-04-01T03:23:12;33.80;;;17.13;;
3022;SDS011;1521;53.584;9.938;2023-04-01T03:25:38;25.53;;;14.40;;
3022;SDS011;1521;53.584;9.938;2023-04-01T03:28:03;22.53;;;12.80;;
3022;SDS011;1521;53.584;9.938;2023-04-01T03:30:29;20.87;;;12.43;;
3022;SDS011;1521;53.584;9.938;2023-04-01T03:32:56;18.53;;;11.13;;
3022;SDS011;1521;53.584;9.938;2023-04-01T03:35:22;24.87;;;11.77;;
3022;SDS011;1521;53.584;9.938;2023-04-01T03:37:49;15.80;;;10.80;;
3022;SDS011;1521;53.584;9.938;2023-04-01T03:40:15;17.10;;;11.23;;
3022;SDS011;1521;53.584;9.938;2023-04-01T03:42:41;16.70;;;10.27;;
3022;SDS011;1521;53.584;9.938;2023-04-01T03:45:07;20.17;;;9.60;;
3022;SDS011;1521;53.584;9.938;2023-04-01T03:47:33;18.20;;;10.23;;
3022;SDS011;1521;53.584;9.938;2023-04-01T03:49:58;16.10;;;10.40;;
3022;SDS011;1521;53.584;9.938;2023-04-01T03:52:24;17.13;;;10.80;;
3022;SDS011;1521;53.584;9.938;2023-04-01T03:54:50;17.13;;;9.73;;
3022;SDS011;1521;53.584;9.938;2023-04-01T03:57:15;19.60;;;10.30;;
3022;SDS011;1521;53.584;9.938;2023-04-01T03:59:41;20.03;;;10.57;;
3022;SDS011;1521;53.584;9.938;2023-04-01T04:02:07;20.20;;;10.57;;
3022;SDS011;1521;53.584;9.938;2023-04-01T04:04:32;15.30;;;9.97;;
3022;SDS011;1521;53.584;9.938;2023-04-01T04:06:58;17.37;;;9.30;;
3022;SDS011;1521;53.584;9.938;2023-04-01T04:09:24;18.87;;;9.47;;
3022;SDS011;1521;53.584;9.938;2023-04-01T04:11:50;13.93;;;8.47;;
3022;SDS011;1521;53.584;9.938;2023-04-01T04:14:15;17.23;;;9.50;;
3022;SDS011;1521;53.584;9.938;2023-04-01T04:16:41;21.20;;;9.60;;
3022;SDS011;1521;53.584;9.938;2023-04-01T04:19:07;17.00;;;9.33;;
3022;SDS011;1521;53.584;9.938;2023-04-01T04:21:32;15.63;;;8.90;;
3022;SDS011;1521;53.584;9.938;2023-04-01T04:23:58;14.90;;;8.47;;
3022;SDS011;1521;53.584;9.938;2023-04-01T04:26:27;14.37;;;8.23;;
3022;SDS011;1521;53.584;9.938;2023-04-01T04:28:53;19.83;;;9.07;;
3022;SDS011;1521;53.584;9.938;2023-04-01T04:31:20;20.30;;;10.10;;
3022;SDS011;1521;53.584;9.938;2023-04-01T04:33:47;14.20;;;9.97;;
3022;SDS011;1521;53.584;9.938;2023-04-01T04:36:13;15.77;;;9.43;;
3022;SDS011;1521;53.584;9.938;2023-04-01T04:38:39;16.40;;;10.07;;
3022;SDS011;1521;53.584;9.938;2023-04-01T04:41:11;18.40;;;10.03;;
3022;SDS011;1521;53.584;9.938;2023-04-01T04:43:38;19.80;;;11.47;;
3022;SDS011;1521;53.584;9.938;2023-04-01T04:46:08;15.30;;;9.97;;
3022;SDS011;1521;53.584;9.938;2023-04-01T04:48:35;18.57;;;10.60;;
3022;SDS011;1521;53.584;9.938;2023-04-01T04:51:01;19.70;;;9.13;;
3022;SDS011;1521;53.584;9.938;2023-04-01T04:53:27;18.10;;;11.80;;
3022;SDS011;1521;53.584;9.938;2023-04-01T04:55:53;21.30;;;11.00;;
3022;SDS011;1521;53.584;9.938;2023-04-01T04:58:18;16.30;;;9.63;;
3022;SDS011;1521;53.584;9.938;2023-04-01T05:00:44;16.20;;;10.67;;
3022;SDS011;1521;53.584;9.938;2023-04-01T05:03:11;15.00;;;10.30;;
3022;SDS011;1521;53.584;9.938;2023-04-01T05:05:37;17.33;;;11.10;;
3022;SDS011;1521;53.584;9.938;2023-04-01T05:08:03;13.83;;;10.67;;
3022;SDS011;1521;53.584;9.938;2023-04-01T05:10:29;14.73;;;10.37;;
3022;SDS011;1521;53.584;9.938;2023-04-01T05:12:55;20.33;;;11.00;;
3022;SDS011;1521;53.584;9.938;2023-04-01T05:15:21;16.57;;;10.57;;
3022;SDS011;1521;53.584;9.938;2023-04-01T05:17:47;18.70;;;11.40;;
3022;SDS011;1521;53.584;9.938;2023-04-01T05:20:12;19.53;;;11.40;;
3022;SDS011;1521;53.584;9.938;2023-04-01T05:22:39;14.83;;;10.03;;
3022;SDS011;1521;53.584;9.938;2023-04-01T05:25:05;18.43;;;11.03;;
3022;SDS011;1521;53.584;9.938;2023-04-01T05:27:30;18.20;;;10.80;;
3022;SDS011;1521;53.584;9.938;2023-04-01T05:29:56;17.40;;;10.13;;
3022;SDS011;1521;53.584;9.938;2023-04-01T05:32:22;3.60;;;3.30;;
3022;SDS011;1521;53.584;9.938;2023-04-01T05:34:50;4.73;;;2.50;;
3022;SDS011;1521;53.584;9.938;2023-04-01T05:37:16;2.00;;;1.70;;
3022;SDS011;1521;53.584;9.938;2023-04-01T05:39:42;2.63;;;1.90;;
3022;SDS011;1521;53.584;9.938;2023-04-01T05:42:07;1.60;;;1.50;;
3022;SDS011;1521;53.584;9.938;2023-04-01T05:44:33;1.30;;;1.20;;
3022;SDS011;1521;53.584;9.938;2023-04-01T05:46:59;1.40;;;1.30;;
3022;SDS011;1521;53.584;9.938;2023-04-01T05:49:25;1.20;;;1.10;;
3022;SDS011;1521;53.584;9.938;2023-04-01T05:51:51;1.57;;;1.40;;
3022;SDS011;1521;53.584;9.938;2023-04-01T05:54:17;2.13;;;1.90;;
3022;SDS011;1521;53.584;9.938;2023-04-01T05:56:43;2.90;;;1.90;;
3022;SDS011;1521;53.584;9.938;2023-04-01T05:59:10;1.60;;;1.50;;
3022;SDS011;1521;53.584;9.938;2023-04-01T06:01:36;1.40;;;1.30;;
3022;SDS011;1521;53.584;9.938;2023-04-01T06:04:02;1.50;;;1.40;;
3022;SDS011;1521;53.584;9.938;2023-04-01T06:06:28;1.80;;;1.30;;
3022;SDS011;1521;53.584;9.938;2023-04-01T06:08:57;2.03;;;1.53;;
3022;SDS011;1521;53.584;9.938;2023-04-01T06:28:30;1.97;;;1.87;;
3022;SDS011;1521;53.584;9.938;2023-04-01T06:31:03;3.03;;;1.50;;
3022;SDS011;1521;53.584;9.938;2023-04-01T06:33:45;1.60;;;1.50;;
3022;SDS011;1521;53.584;9.938;2023-04-01T06:42:34;1.50;;;1.40;;
3022;SDS011;1521;53.584;9.938;2023-04-01T06:45:30;1.73;;;1.63;;
3022;SDS011;1521;53.584;9.938;2023-04-01T06:48:25;1.70;;;1.30;;
3022;SDS011;1521;53.584;9.938;2023-04-01T06:51:12;1.90;;;1.67;;
3022;SDS011;1521;53.584;9.938;2023-04-01T06:54:17;1.20;;;1.10;;
3022;SDS011;1521;53.584;9.938;2023-04-01T06:56:46;2.43;;;1.30;;
3022;SDS011;1521;53.584;9.938;2023-04-01T06:59:21;2.00;;;1.80;;
3022;SDS011;1521;53.584;9.938;2023-04-01T07:04:30;2.40;;;1.47;;
3022;SDS011;1521;53.584;9.938;2023-04-01T07:07:04;1.33;;;1.23;;
3022;SDS011;1521;53.584;9.938;2023-04-01T07:09:38;1.37;;;1.27;;
3022;SDS011;1521;53.584;9.938;2023-04-01T07:12:15;1.33;;;1.23;;
3022;SDS011;1521;53.584;9.938;2023-04-01T07:14:55;1.40;;;1.30;;
3022;SDS011;1521;53.584;9.938;2023-04-01T07:17:23;1.20;;;1.10;;
3022;SDS011;1521;53.584;9.938;2023-04-01T07:19:56;1.30;;;1.20;;
3022;SDS011;1521;53.584;9.938;2023-04-01T07:22:33;1.20;;;1.10;;
3022;SDS011;1521;53.584;9.938;2023-04-01T07:25:07;2.07;;;1.03;;
3022;SDS011;1521;53.584;9.938;2023-04-01T07:27:45;1.30;;;1.20;;
3022;SDS011;1521;53.584;9.938;2023-04-01T07:30:17;1.93;;;1.30;;
3022;SDS011;1521;53.584;9.938;2023-04-01T07:35:23;1.07;;;1.00;;
3022;SDS011;1521;53.584;9.938;2023-04-01T07:38:09;1.67;;;1.10;;
3022;SDS011;1521;53.584;9.938;2023-04-01T07:46:54;2.50;;;1.30;;
3022;SDS011;1521;53.584;9.938;2023-04-01T07:49:44;1.33;;;1.23;;
3022;SDS011;1521;53.584;9.938;2023-04-01T07:55:20;1.20;;;1.07;;
3022;SDS011;1521;53.584;9.938;2023-04-01T08:06:19;1.13;;;1.03;;
3022;SDS011;1521;53.584;9.938;2023-04-01T08:09:08;1.30;;;1.20;;
3022;SDS011;1521;53.584;9.938;2023-04-01T08:12:31;1.70;;;1.07;;
3022;SDS011;1521;53.584;9.938;2023-04-01T08:15:25;1.17;;;1.00;;
3022;SDS011;1521;53.584;9.938;2023-04-01T08:21:21;1.47;;;1.33;;
3022;SDS011;1521;53.584;9.938;2023-04-01T08:23:51;1.47;;;1.20;;
3022;SDS011;1521;53.584;9.938;2023-04-01T08:26:28;1.17;;;0.90;;
3022;SDS011;1521;53.584;9.938;2023-04-01T08:29:20;0.90;;;0.80;;
3022;SDS011;1521;53.584;9.938;2023-04-01T08:31:53;0.93;;;0.93;;
3022;SDS011;1521;53.584;9.938;2023-04-01T08:34:30;0.80;;;0.80;;
3022;SDS011;1521;53.584;9.938;2023-04-01T08:37:08;1.13;;;1.00;;
3022;SDS011;1521;53.584;9.938;2023-04-01T08:39:48;1.33;;;1.13;;
3022;SDS011;1521;53.584;9.938;2023-04-01T09:00:47;1.10;;;1.00;;
3022;SDS011;1521;53.584;9.938;2023-04-01T09:03:25;2.43;;;1.03;;
3022;SDS011;1521;53.584;9.938;2023-04-01T09:08:52;1.13;;;1.00;;
3022;SDS011;1521;53.584;9.938;2023-04-01T09:27:56;1.50;;;1.00;;
3022;SDS011;1521;53.584;9.938;2023-04-01T09:38:59;1.30;;;0.97;;
3022;SDS011;1521;53.584;9.938;2023-04-01T09:42:06;1.10;;;1.00;;
3022;SDS011;1521;53.584;9.938;2023-04-01T09:44:48;3.43;;;1.00;;
3022;SDS011;1521;53.584;9.938;2023-04-01T10:10:19;1.70;;;1.20;;
3022;SDS011;1521;53.584;9.938;2023-04-01T10:27:27;1.30;;;0.83;;
3022;SDS011;1521;53.584;9.938;2023-04-01T10:33:27;0.83;;;0.83;;
3022;SDS011;1521;53.584;9.938;2023-04-01T10:36:45;1.97;;;0.80;;
3022;SDS011;1521;53.584;9.938;2023-04-01T11:07:22;0.80;;;0.80;;
3022;SDS011;1521;53.584;9.938;2023-04-01T11:29:26;1.23;;;1.00;;
3022;SDS011;1521;53.584;9.938;2023-04-01T11:37:29;1.10;;;1.00;;
3022;SDS011;1521;53.584;9.938;2023-04-01T11:42:57;2.37;;;1.43;;
3022;SDS011;1521;53.584;9.938;2023-04-01T11:51:30;3.33;;;2.40;;
3022;SDS011;1521;53.584;9.938;2023-04-01T11:54:22;2.53;;;2.20;;
3022;SDS011;1521;53.584;9.938;2023-04-01T11:57:07;2.07;;;1.83;;
3022;SDS011;1521;53.584;9.938;2023-04-01T12:11:17;3.47;;;2.50;;
3022;SDS011;1521;53.584;9.938;2023-04-01T12:13:51;4.20;;;2.60;;
3022;SDS011;1521;53.584;9.938;2023-04-01T12:16:39;4.20;;;2.80;;
3022;SDS011;1521;53.584;9.938;2023-04-01T12:19:17;4.80;;;3.87;;
3022;SDS011;1521;53.584;9.938;2023-04-01T12:33:24;4.00;;;3.50;;
3022;SDS011;1521;53.584;9.938;2023-04-01T12:35:44;4.03;;;3.23;;
3022;SDS011;1521;53.584;9.938;2023-04-01T12:40:45;7.30;;;4.20;;
3022;SDS011;1521;53.584;9.938;2023-04-01T12:45:54;6.20;;;4.37;;
3022;SDS011;1521;53.584;9.938;2023-04-01T13:00:08;7.00;;;3.80;;
3022;SDS011;1521;53.584;9.938;2023-04-01T13:08:40;4.87;;;3.80;;
3022;SDS011;1521;53.584;9.938;2023-04-01T13:19:55;6.90;;;3.33;;
3022;SDS011;1521;53.584;9.938;2023-04-01T13:28:03;9.03;;;4.33;;
3022;SDS011;1521;53.584;9.938;2023-04-01T13:30:39;5.17;;;3.30;;
3022;SDS011;1521;53.584;9.938;2023-04-01T13:41:33;9.40;;;4.53;;
3022;SDS011;1521;53.584;9.938;2023-04-01T13:44:12;7.27;;;3.73;;
3022;SDS011;1521;53.584;9.938;2023-04-01T14:05:44;7.40;;;4.33;;
3022;SDS011;1521;53.584;9.938;2023-04-01T14:08:34;7.20;;;4.00;;
3022;SDS011;1521;53.584;9.938;2023-04-01T14:11:28;8.00;;;3.70;;
3022;SDS011;1521;53.584;9.938;2023-04-01T14:22:29;7.00;;;3.93;;
3022;SDS011;1521;53.584;9.938;2023-04-01T14:25:21;7.70;;;4.80;;
3022;SDS011;1521;53.584;9.938;2023-04-01T14:42:03;10.13;;;4.60;;
3022;SDS011;1521;53.584;9.938;2023-04-01T14:47:44;8.03;;;4.80;;
3022;SDS011;1521;53.584;9.938;2023-04-01T14:50:25;9.17;;;4.60;;
3022;SDS011;1521;53.584;9.938;2023-04-01T14:53:11;7.13;;;4.60;;
3022;SDS011;1521;53.584;9.938;2023-04-01T14:55:46;11.03;;;5.30;;
3022;SDS011;1521;53.584;9.938;2023-04-01T14:58:21;8.83;;;5.37;;
3022;SDS011;1521;53.584;9.938;2023-04-01T15:28:42;8.90;;;6.10;;
3022;SDS011;1521;53.584;9.938;2023-04-01T15:31:35;15.50;;;6.20;;
3022;SDS011;1521;53.584;9.938;2023-04-01T15:39:24;12.23;;;6.40;;
3022;SDS011;1521;53.584;9.938;2023-04-01T15:50:05;10.70;;;6.70;;
3022;SDS011;1521;53.584;9.938;2023-04-01T16:09:13;13.23;;;7.27;;
3022;SDS011;1521;53.584;9.938;2023-04-01T16:17:00;16.80;;;7.43;;
3022;SDS011;1521;53.584;9.938;2023-04-01T16:19:38;15.67;;;8.43;;
3022;SDS011;1521;53.584;9.938;2023-04-01T16:27:29;10.37;;;6.80;;
3022;SDS011;1521;53.584;9.938;2023-04-01T16:30:22;10.23;;;6.40;;
3022;SDS011;1521;53.584;9.938;2023-04-01T16:33:15;14.60;;;6.63;;
3022;SDS011;1521;53.584;9.938;2023-04-01T16:36:00;11.20;;;6.70;;
3022;SDS011;1521;53.584;9.938;2023-04-01T16:43:42;20.20;;;7.17;;
3022;SDS011;1521;53.584;9.938;2023-04-01T16:52:03;11.37;;;7.17;;
3022;SDS011;1521;53.584;9.938;2023-04-01T16:54:55;12.57;;;7.30;;
3022;SDS011;1521;53.584;9.938;2023-04-01T17:00:20;18.10;;;8.30;;
3022;SDS011;1521;53.584;9.938;2023-04-01T17:02:57;14.13;;;7.47;;
3022;SDS011;1521;53.584;9.938;2023-04-01T17:05:52;14.13;;;7.17;;
3022;SDS011;1521;53.584;9.938;2023-04-01T17:14:40;14.03;;;7.37;;
3022;SDS011;1521;53.584;9.938;2023-04-01T17:22:31;13.77;;;6.20;;
3022;SDS011;1521;53.584;9.938;2023-04-01T17:25:17;14.13;;;5.60;;
3022;SDS011;1521;53.584;9.938;2023-04-01T17:38:36;12.70;;;5.33;;
3022;SDS011;1521;53.584;9.938;2023-04-01T17:49:24;10.20;;;5.57;;
3022;SDS011;1521;53.584;9.938;2023-04-01T18:00:22;7.43;;;4.17;;
3022;SDS011;1521;53.584;9.938;2023-04-01T18:06:12;9.40;;;4.40;;
3022;SDS011;1521;53.584;9.938;2023-04-01T18:11:34;9.37;;;4.37;;
3022;SDS011;1521;53.584;9.938;2023-04-01T18:17:25;7.50;;;4.60;;
3022;SDS011;1521;53.584;9.938;2023-04-01T18:25:39;5.93;;;4.00;;
3022;SDS011;1521;53.584;9.938;2023-04-01T18:28:21;7.50;;;4.70;;
3022;SDS011;1521;53.584;9.938;2023-04-01T18:33:31;8.40;;;4.40;;
3022;SDS011;1521;53.584;9.938;2023-04-01T18:36:16;6.60;;;4.80;;
3022;SDS011;1521;53.584;9.938;2023-04-01T18:38:55;7.90;;;4.10;;
3022;SDS011;1521;53.584;9.938;2023-04-01T18:49:33;9.17;;;5.33;;
3022;SDS011;1521;53.584;9.938;2023-04-01T18:52:09;8.20;;;5.53;;
3022;SDS011;1521;53.584;9.938;2023-04-01T18:55:18;5.73;;;4.67;;
3022;SDS011;1521;53.584;9.938;2023-04-01T18:57:51;8.00;;;4.87;;
3022;SDS011;1521;53.584;9.938;2023-04-01T19:00:22;10.00;;;6.20;;
3022;SDS011;1521;53.584;9.938;2023-04-01T19:05:44;8.57;;;5.10;;
3022;SDS011;1521;53.584;9.938;2023-04-01T19:08:18;8.73;;;5.23;;
3022;SDS011;1521;53.584;9.938;2023-04-01T19:10:51;11.43;;;4.90;;
3022;SDS011;1521;53.584;9.938;2023-04-01T19:16:19;7.40;;;4.83;;
3022;SDS011;1521;53.584;9.938;2023-04-01T19:21:44;10.27;;;4.97;;
3022;SDS011;1521;53.584;9.938;2023-04-01T19:24:23;7.90;;;4.43;;
3022;SDS011;1521;53.584;9.938;2023-04-01T19:27:36;11.07;;;4.90;;
3022;SDS011;1521;53.584;9.938;2023-04-01T19:32:48;10.27;;;4.87;;
3022;SDS011;1521;53.584;9.938;2023-04-01T19:46:16;6.90;;;5.20;;
3022;SDS011;1521;53.584;9.938;2023-04-01T19:51:34;7.83;;;5.30;;
3022;SDS011;1521;53.584;9.938;2023-04-01T20:02:17;9.60;;;5.37;;
3022;SDS011;1521;53.584;9.938;2023-04-01T20:05:04;8.27;;;5.13;;
3022;SDS011;1521;53.584;9.938;2023-04-01T20:07:57;8.40;;;4.93;;
3022;SDS011;1521;53.584;9.938;2023-04-01T20:13:44;6.27;;;5.10;;
3022;SDS011;1521;53.584;9.938;2023-04-01T20:19:15;7.73;;;5.77;;
3022;SDS011;1521;53.584;9.938;2023-04-01T20:21:56;12.70;;;5.13;;
3022;SDS011;1521;53.584;9.938;2023-04-01T20:24:33;9.60;;;5.20;;
3022;SDS011;1521;53.584;9.938;2023-04-01T20:27:10;8.53;;;4.47;;
3022;SDS011;1521;53.584;9.938;2023-04-01T20:32:35;14.83;;;6.33;;
3022;SDS011;1521;53.584;9.938;2023-04-01T20:37:41;5.93;;;4.10;;
3022;SDS011;1521;53.584;9.938;2023-04-01T20:40:35;13.00;;;5.20;;
3022;SDS011;1521;53.584;9.938;2023-04-01T20:43:26;6.17;;;4.30;;
3022;SDS011;1521;53.584;9.938;2023-04-01T20:45:56;8.37;;;3.80;;
3022;SDS011;1521;53.584;9.938;2023-04-01T20:50:53;9.93;;;4.30;;
3022;SDS011;1521;53.584;9.938;2023-04-01T20:53:34;8.90;;;3.80;;
3022;SDS011;1521;53.584;9.938;2023-04-01T20:56:06;9.50;;;4.03;;
3022;SDS011;1521;53.584;9.938;2023-04-01T20:58:48;7.00;;;3.67;;
3022;SDS011;1521;53.584;9.938;2023-04-01T21:17:34;8.80;;;3.90;;
3022;SDS011;1521;53.584;9.938;2023-04-01T21:20:37;11.77;;;4.10;;
3022;SDS011;1521;53.584;9.938;2023-04-01T21:25:47;6.70;;;3.53;;
3022;SDS011;1521;53.584;9.938;2023-04-01T21:44:48;6.10;;;3.53;;
3022;SDS011;1521;53.584;9.938;2023-04-01T22:04:29;5.23;;;3.60;;
3022;SDS011;1521;53.584;9.938;2023-04-01T22:07:17;8.30;;;3.00;;
3022;SDS011;1521;53.584;9.938;2023-04-01T22:12:26;3.30;;;2.57;;
3022;SDS011;1521;53.584;9.938;2023-04-01T22:15:02;5.03;;;3.10;;
3022;SDS011;1521;53.584;9.938;2023-04-01T22:23:01;6.33;;;3.00;;
3022;SDS011;1521;53.584;9.938;2023-04-01T22:25:38;8.33;;;2.53;;
3022;SDS011;1521;53.584;9.938;2023-04-01T22:28:15;4.23;;;2.30;;
3022;SDS011;1521;53.584;9.938;2023-04-01T22:30:54;4.80;;;2.20;;
3022;SDS011;1521;53.584;9.938;2023-04-01T22:39:04;4.20;;;2.20;;
3022;SDS011;1521;53.584;9.938;2023-04-01T22:41:55;6.60;;;2.30;;
3022;SDS011;1521;53.584;9.938;2023-04-01T22:44:50;9.37;;;2.67;;
3022;SDS011;1521;53.584;9.938;2023-04-01T22:47:35;7.90;;;2.57;;
3022;SDS011;1521;53.584;9.938;2023-04-01T22:50:12;7.57;;;2.10;;
3022;SDS011;1521;53.584;9.938;2023-04-01T22:52:41;4.73;;;2.63;;
3022;SDS011;1521;53.584;9.938;2023-04-01T22:57:56;2.90;;;2.20;;
3022;SDS011;1521;53.584;9.938;2023-04-01T23:00:26;11.00;;;2.40;;
3022;SDS011;1521;53.584;9.938;2023-04-01T23:03:10;6.80;;;3.37;;
3022;SDS011;1521;53.584;9.938;2023-04-01T23:05:49;4.20;;;2.40;;
3022;SDS011;1521;53.584;9.938;2023-04-01T23:11:05;4.07;;;1.83;;
3022;SDS011;1521;53.584;9.938;2023-04-01T23:13:35;5.43;;;2.20;;
3022;SDS011;1521;53.584;9.938;2023-04-01T23:16:04;7.83;;;2.13;;
3022;SDS011;1521;53.584;9.938;2023-04-01T23:18:52;8.10;;;2.03;;
3022;SDS011;1521;53.584;9.938;2023-04-01T23:21:35;6.87;;;1.90;;
3022;SDS011;1521;53.584;9.938;2023-04-01T23:24:13;4.90;;;2.60;;
3022;SDS011;1521;53.584;9.938;2023-04-01T23:26:50;3.60;;;1.93;;
3022;SDS011;1521;53.584;9.938;2023-04-01T23:29:21;3.83;;;2.10;;
3022;SDS011;1521;53.584;9.938;2023-04-01T23:31:48;6.00;;;2.10;;
3022;SDS011;1521;53.584;9.938;2023-04-01T23:34:22;6.00;;;2.40;;
3022;SDS011;1521;53.584;9.938;2023-04-01T23:37:04;5.17;;;1.77;;
3022;SDS011;1521;53.584;9.938;2023-04-01T23:39:34;5.50;;;2.47;;
3022;SDS011;1521;53.584;9.938;2023-04-01T23:42:24;8.57;;;1.80;;
3022;SDS011;1521;53.584;9.938;2023-04-01T23:45:04;3.10;;;1.67;;
3022;SDS011;1521;53.584;9.938;2023-04-01T23:47:38;3.87;;;2.00;;
3022;SDS011;1521;53.584;9.938;2023-04-01T23:50:16;12.23;;;2.10;;
3022;SDS011;1521;53.584;9.938;2023-04-01T23:52:48;5.27;;;1.90;;
3022;SDS011;1521;53.584;9.938;2023-04-01T23:55:34;2.53;;;1.60;;
